Terminal Aerodrome Forecast
Issued by NWS Binghamton, NY

Home | Current Version | Previous Version | Text Only | Print | Product List | Glossary On
Versions: 1 2 3 4 5 6 7 8 9 10 11 12 13 14 15 16 17 18 19 20 21 22 23 24 25 26
000
FTUS41 KBGM 140414 AAD
TAFBGM
TAF AMD
KBGM 140414Z 1404/1424 23005KT 1SM -SN VV015
      TEMPO 1404/1408 3/4SM -SN BR VV008
     FM141200 32011KT 5SM -SHSN SCT012 OVC020
     FM141600 31012KT P6SM BKN040=

USA.gov is the U.S. government's official web portal to all federal, state and local government web resources and services.